sensor_id;sensor_type;location;lat;lon;timestamp;P1;durP1;ratioP1;P2;durP2;ratioP2
75488;SDS011;64069;46.396;48.102;2023-07-31T00:01:11;13.65;;;5.72;;
75488;SDS011;64069;46.396;48.102;2023-07-31T00:03:43;10.43;;;4.95;;
75488;SDS011;64069;46.396;48.102;2023-07-31T00:06:09;7.70;;;4.82;;
75488;SDS011;64069;46.396;48.102;2023-07-31T00:08:41;7.80;;;4.53;;
75488;SDS011;64069;46.396;48.102;2023-07-31T00:11:20;9.60;;;5.60;;
75488;SDS011;64069;46.396;48.102;2023-07-31T00:13:46;7.68;;;4.47;;
75488;SDS011;64069;46.396;48.102;2023-07-31T00:16:18;7.65;;;4.97;;
75488;SDS011;64069;46.396;48.102;2023-07-31T00:18:50;10.40;;;5.25;;
75488;SDS011;64069;46.396;48.102;2023-07-31T00:21:16;10.00;;;4.68;;
75488;SDS011;64069;46.396;48.102;2023-07-31T00:23:48;10.27;;;5.30;;
75488;SDS011;64069;46.396;48.102;2023-07-31T00:26:20;6.63;;;4.68;;
75488;SDS011;64069;46.396;48.102;2023-07-31T00:28:46;9.25;;;4.85;;
75488;SDS011;64069;46.396;48.102;2023-07-31T00:31:18;8.32;;;4.22;;
75488;SDS011;64069;46.396;48.102;2023-07-31T00:33:50;8.43;;;4.22;;
75488;SDS011;64069;46.396;48.102;2023-07-31T00:36:16;8.55;;;4.55;;
75488;SDS011;64069;46.396;48.102;2023-07-31T00:38:49;9.85;;;4.45;;
75488;SDS011;64069;46.396;48.102;2023-07-31T00:41:21;7.53;;;4.55;;
75488;SDS011;64069;46.396;48.102;2023-07-31T00:43:47;8.27;;;4.65;;
75488;SDS011;64069;46.396;48.102;2023-07-31T00:46:20;9.50;;;4.55;;
75488;SDS011;64069;46.396;48.102;2023-07-31T00:48:54;6.45;;;4.60;;
75488;SDS011;64069;46.396;48.102;2023-07-31T00:51:28;9.73;;;4.90;;
75488;SDS011;64069;46.396;48.102;2023-07-31T00:54:01;8.68;;;4.80;;
75488;SDS011;64069;46.396;48.102;2023-07-31T00:56:28;12.15;;;5.13;;
75488;SDS011;64069;46.396;48.102;2023-07-31T00:59:01;8.00;;;5.00;;
75488;SDS011;64069;46.396;48.102;2023-07-31T01:01:33;8.98;;;5.22;;
75488;SDS011;64069;46.396;48.102;2023-07-31T01:03:59;11.27;;;5.47;;
75488;SDS011;64069;46.396;48.102;2023-07-31T01:12:16;10.65;;;5.45;;
75488;SDS011;64069;46.396;48.102;2023-07-31T01:15:05;9.40;;;6.60;;
75488;SDS011;64069;46.396;48.102;2023-07-31T01:17:42;11.18;;;5.75;;
75488;SDS011;64069;46.396;48.102;2023-07-31T01:20:22;15.43;;;5.75;;
75488;SDS011;64069;46.396;48.102;2023-07-31T01:28:53;11.55;;;6.88;;
75488;SDS011;64069;46.396;48.102;2023-07-31T01:31:28;12.57;;;7.30;;
75488;SDS011;64069;46.396;48.102;2023-07-31T01:34:02;9.77;;;6.43;;
75488;SDS011;64069;46.396;48.102;2023-07-31T01:36:35;11.35;;;6.97;;
75488;SDS011;64069;46.396;48.102;2023-07-31T01:39:01;12.25;;;8.10;;
75488;SDS011;64069;46.396;48.102;2023-07-31T01:41:35;13.73;;;7.50;;
75488;SDS011;64069;46.396;48.102;2023-07-31T01:44:08;15.43;;;7.63;;
75488;SDS011;64069;46.396;48.102;2023-07-31T01:46:34;22.77;;;7.93;;
75488;SDS011;64069;46.396;48.102;2023-07-31T01:49:06;17.48;;;7.07;;
75488;SDS011;64069;46.396;48.102;2023-07-31T01:51:38;12.68;;;6.75;;
75488;SDS011;64069;46.396;48.102;2023-07-31T01:54:04;14.10;;;7.40;;
75488;SDS011;64069;46.396;48.102;2023-07-31T01:56:37;11.82;;;5.95;;
75488;SDS011;64069;46.396;48.102;2023-07-31T01:59:09;12.35;;;6.88;;
75488;SDS011;64069;46.396;48.102;2023-07-31T02:01:35;12.07;;;6.50;;
75488;SDS011;64069;46.396;48.102;2023-07-31T02:04:08;9.82;;;6.28;;
75488;SDS011;64069;46.396;48.102;2023-07-31T02:06:49;10.05;;;5.78;;
75488;SDS011;64069;46.396;48.102;2023-07-31T02:09:28;11.48;;;6.07;;
75488;SDS011;64069;46.396;48.102;2023-07-31T02:11:54;9.82;;;6.38;;
75488;SDS011;64069;46.396;48.102;2023-07-31T02:14:26;9.20;;;5.65;;
75488;SDS011;64069;46.396;48.102;2023-07-31T02:16:58;8.80;;;5.90;;
75488;SDS011;64069;46.396;48.102;2023-07-31T02:19:30;8.40;;;5.00;;
75488;SDS011;64069;46.396;48.102;2023-07-31T02:21:57;10.05;;;4.82;;
75488;SDS011;64069;46.396;48.102;2023-07-31T02:24:30;7.82;;;4.47;;
75488;SDS011;64069;46.396;48.102;2023-07-31T02:26:57;7.13;;;3.97;;
75488;SDS011;64069;46.396;48.102;2023-07-31T02:29:29;8.82;;;3.60;;
75488;SDS011;64069;46.396;48.102;2023-07-31T02:32:01;14.25;;;3.78;;
75488;SDS011;64069;46.396;48.102;2023-07-31T02:34:27;10.95;;;3.30;;
75488;SDS011;64069;46.396;48.102;2023-07-31T02:37:00;7.20;;;3.30;;
75488;SDS011;64069;46.396;48.102;2023-07-31T02:39:32;8.93;;;3.15;;
75488;SDS011;64069;46.396;48.102;2023-07-31T02:41:59;8.43;;;3.38;;
75488;SDS011;64069;46.396;48.102;2023-07-31T02:44:32;9.68;;;3.03;;
75488;SDS011;64069;46.396;48.102;2023-07-31T02:47:04;9.40;;;2.92;;
75488;SDS011;64069;46.396;48.102;2023-07-31T02:49:33;17.00;;;6.45;;
75488;SDS011;64069;46.396;48.102;2023-07-31T02:52:05;8.10;;;3.97;;
75488;SDS011;64069;46.396;48.102;2023-07-31T02:54:38;12.55;;;3.45;;
75488;SDS011;64069;46.396;48.102;2023-07-31T02:57:04;5.28;;;2.70;;
75488;SDS011;64069;46.396;48.102;2023-07-31T02:59:37;6.03;;;2.88;;
75488;SDS011;64069;46.396;48.102;2023-07-31T03:02:10;5.78;;;2.88;;
75488;SDS011;64069;46.396;48.102;2023-07-31T03:04:37;18.35;;;5.03;;
75488;SDS011;64069;46.396;48.102;2023-07-31T03:07:17;8.93;;;4.18;;
75488;SDS011;64069;46.396;48.102;2023-07-31T03:09:49;5.22;;;2.25;;
75488;SDS011;64069;46.396;48.102;2023-07-31T03:12:28;10.88;;;5.05;;
75488;SDS011;64069;46.396;48.102;2023-07-31T03:14:54;35.53;;;14.15;;
75488;SDS011;64069;46.396;48.102;2023-07-31T03:17:26;21.92;;;10.07;;
75488;SDS011;64069;46.396;48.102;2023-07-31T03:20:05;17.65;;;6.15;;
75488;SDS011;64069;46.396;48.102;2023-07-31T03:22:38;7.55;;;3.08;;
75488;SDS011;64069;46.396;48.102;2023-07-31T03:25:04;12.13;;;3.22;;
75488;SDS011;64069;46.396;48.102;2023-07-31T03:27:37;14.93;;;3.20;;
75488;SDS011;64069;46.396;48.102;2023-07-31T03:30:09;6.88;;;2.28;;
75488;SDS011;64069;46.396;48.102;2023-07-31T03:32:36;3.83;;;1.73;;
75488;SDS011;64069;46.396;48.102;2023-07-31T03:35:08;6.40;;;2.00;;
75488;SDS011;64069;46.396;48.102;2023-07-31T03:37:42;4.38;;;1.88;;
75488;SDS011;64069;46.396;48.102;2023-07-31T03:40:08;2.75;;;1.80;;
75488;SDS011;64069;46.396;48.102;2023-07-31T03:42:34;3.53;;;1.83;;
75488;SDS011;64069;46.396;48.102;2023-07-31T03:45:01;5.82;;;1.45;;
75488;SDS011;64069;46.396;48.102;2023-07-31T03:47:28;4.72;;;1.80;;
75488;SDS011;64069;46.396;48.102;2023-07-31T03:49:54;5.63;;;1.80;;
75488;SDS011;64069;46.396;48.102;2023-07-31T03:52:20;8.20;;;2.10;;
75488;SDS011;64069;46.396;48.102;2023-07-31T03:54:46;6.18;;;1.67;;
75488;SDS011;64069;46.396;48.102;2023-07-31T03:57:12;6.85;;;1.95;;
75488;SDS011;64069;46.396;48.102;2023-07-31T03:59:38;3.30;;;1.60;;
75488;SDS011;64069;46.396;48.102;2023-07-31T04:02:04;6.10;;;1.60;;
75488;SDS011;64069;46.396;48.102;2023-07-31T04:04:30;4.75;;;1.80;;
75488;SDS011;64069;46.396;48.102;2023-07-31T04:06:56;4.40;;;1.52;;
75488;SDS011;64069;46.396;48.102;2023-07-31T04:09:22;5.93;;;1.60;;
75488;SDS011;64069;46.396;48.102;2023-07-31T04:11:48;9.48;;;1.60;;
75488;SDS011;64069;46.396;48.102;2023-07-31T04:14:14;10.02;;;2.10;;
75488;SDS011;64069;46.396;48.102;2023-07-31T04:16:40;3.17;;;1.55;;
75488;SDS011;64069;46.396;48.102;2023-07-31T04:19:05;4.90;;;1.75;;
75488;SDS011;64069;46.396;48.102;2023-07-31T04:21:31;8.10;;;1.98;;
75488;SDS011;64069;46.396;48.102;2023-07-31T04:23:57;12.35;;;2.90;;
75488;SDS011;64069;46.396;48.102;2023-07-31T04:26:23;16.27;;;2.60;;
75488;SDS011;64069;46.396;48.102;2023-07-31T04:28:49;9.60;;;2.15;;
75488;SDS011;64069;46.396;48.102;2023-07-31T04:31:15;20.80;;;4.15;;
75488;SDS011;64069;46.396;48.102;2023-07-31T04:33:41;10.30;;;2.13;;
75488;SDS011;64069;46.396;48.102;2023-07-31T04:36:07;10.32;;;1.88;;
75488;SDS011;64069;46.396;48.102;2023-07-31T04:38:34;6.55;;;1.58;;
75488;SDS011;64069;46.396;48.102;2023-07-31T04:41:00;7.97;;;1.60;;
75488;SDS011;64069;46.396;48.102;2023-07-31T04:43:26;4.57;;;1.60;;
75488;SDS011;64069;46.396;48.102;2023-07-31T04:45:52;5.03;;;1.95;;
75488;SDS011;64069;46.396;48.102;2023-07-31T04:48:19;8.93;;;2.00;;
75488;SDS011;64069;46.396;48.102;2023-07-31T04:50:45;19.25;;;2.10;;
75488;SDS011;64069;46.396;48.102;2023-07-31T04:53:11;15.45;;;2.17;;
75488;SDS011;64069;46.396;48.102;2023-07-31T04:55:37;17.05;;;2.40;;
75488;SDS011;64069;46.396;48.102;2023-07-31T04:58:03;6.95;;;1.77;;
75488;SDS011;64069;46.396;48.102;2023-07-31T05:00:29;2.35;;;1.50;;
75488;SDS011;64069;46.396;48.102;2023-07-31T05:02:55;10.57;;;1.75;;
75488;SDS011;64069;46.396;48.102;2023-07-31T05:05:21;5.10;;;1.77;;
75488;SDS011;64069;46.396;48.102;2023-07-31T05:07:46;2.30;;;1.10;;
75488;SDS011;64069;46.396;48.102;2023-07-31T05:10:12;28.15;;;4.25;;
75488;SDS011;64069;46.396;48.102;2023-07-31T05:12:38;8.52;;;1.70;;
75488;SDS011;64069;46.396;48.102;2023-07-31T05:15:04;3.40;;;1.30;;
75488;SDS011;64069;46.396;48.102;2023-07-31T05:17:31;5.90;;;1.33;;
75488;SDS011;64069;46.396;48.102;2023-07-31T05:19:57;2.75;;;1.45;;
75488;SDS011;64069;46.396;48.102;2023-07-31T05:22:23;4.55;;;1.10;;
75488;SDS011;64069;46.396;48.102;2023-07-31T05:24:49;2.90;;;1.10;;
75488;SDS011;64069;46.396;48.102;2023-07-31T05:27:15;3.47;;;1.20;;
75488;SDS011;64069;46.396;48.102;2023-07-31T05:29:43;9.23;;;1.80;;
75488;SDS011;64069;46.396;48.102;2023-07-31T05:32:10;7.82;;;1.38;;
75488;SDS011;64069;46.396;48.102;2023-07-31T05:34:36;2.58;;;1.23;;
75488;SDS011;64069;46.396;48.102;2023-07-31T05:37:01;3.58;;;1.10;;
75488;SDS011;64069;46.396;48.102;2023-07-31T05:39:27;2.88;;;1.20;;
75488;SDS011;64069;46.396;48.102;2023-07-31T05:41:53;2.78;;;1.25;;
75488;SDS011;64069;46.396;48.102;2023-07-31T05:44:19;5.10;;;1.42;;
75488;SDS011;64069;46.396;48.102;2023-07-31T05:46:45;4.47;;;1.05;;
75488;SDS011;64069;46.396;48.102;2023-07-31T05:49:11;4.32;;;1.20;;
75488;SDS011;64069;46.396;48.102;2023-07-31T05:51:37;6.43;;;1.90;;
75488;SDS011;64069;46.396;48.102;2023-07-31T05:54:03;1.88;;;1.15;;
75488;SDS011;64069;46.396;48.102;2023-07-31T05:56:29;3.47;;;1.20;;
75488;SDS011;64069;46.396;48.102;2023-07-31T05:58:55;6.10;;;1.70;;
75488;SDS011;64069;46.396;48.102;2023-07-31T06:01:22;10.63;;;1.73;;
75488;SDS011;64069;46.396;48.102;2023-07-31T06:03:48;10.88;;;1.55;;
75488;SDS011;64069;46.396;48.102;2023-07-31T06:06:14;13.57;;;1.75;;
75488;SDS011;64069;46.396;48.102;2023-07-31T06:08:40;3.90;;;1.33;;
75488;SDS011;64069;46.396;48.102;2023-07-31T06:11:06;2.97;;;1.40;;
75488;SDS011;64069;46.396;48.102;2023-07-31T06:13:35;4.25;;;1.35;;
75488;SDS011;64069;46.396;48.102;2023-07-31T06:16:01;14.43;;;2.03;;
75488;SDS011;64069;46.396;48.102;2023-07-31T06:18:31;4.70;;;2.75;;
75488;SDS011;64069;46.396;48.102;2023-07-31T06:20:57;38.97;;;16.55;;
75488;SDS011;64069;46.396;48.102;2023-07-31T06:23:24;3.50;;;1.60;;
75488;SDS011;64069;46.396;48.102;2023-07-31T06:25:50;3.13;;;1.52;;
75488;SDS011;64069;46.396;48.102;2023-07-31T06:28:16;6.95;;;2.35;;
75488;SDS011;64069;46.396;48.102;2023-07-31T06:30:41;12.30;;;3.88;;
75488;SDS011;64069;46.396;48.102;2023-07-31T06:33:08;15.00;;;6.22;;
75488;SDS011;64069;46.396;48.102;2023-07-31T06:35:34;16.67;;;4.55;;
75488;SDS011;64069;46.396;48.102;2023-07-31T06:38:00;7.82;;;2.25;;
75488;SDS011;64069;46.396;48.102;2023-07-31T06:40:27;9.32;;;2.50;;
75488;SDS011;64069;46.396;48.102;2023-07-31T06:42:54;12.80;;;1.70;;
75488;SDS011;64069;46.396;48.102;2023-07-31T06:45:19;21.42;;;2.88;;
75488;SDS011;64069;46.396;48.102;2023-07-31T06:47:47;6.90;;;1.60;;
75488;SDS011;64069;46.396;48.102;2023-07-31T06:50:17;5.40;;;1.40;;
75488;SDS011;64069;46.396;48.102;2023-07-31T06:52:43;17.85;;;7.85;;
75488;SDS011;64069;46.396;48.102;2023-07-31T06:55:19;7.35;;;2.90;;
75488;SDS011;64069;46.396;48.102;2023-07-31T06:57:47;4.40;;;1.33;;
75488;SDS011;64069;46.396;48.102;2023-07-31T07:00:15;7.95;;;2.03;;
75488;SDS011;64069;46.396;48.102;2023-07-31T07:02:41;2.78;;;1.35;;
75488;SDS011;64069;46.396;48.102;2023-07-31T07:05:07;4.35;;;1.50;;
75488;SDS011;64069;46.396;48.102;2023-07-31T07:07:34;10.05;;;2.22;;
75488;SDS011;64069;46.396;48.102;2023-07-31T07:10:01;4.00;;;1.48;;
75488;SDS011;64069;46.396;48.102;2023-07-31T07:12:29;6.07;;;1.80;;
75488;SDS011;64069;46.396;48.102;2023-07-31T07:14:56;1.85;;;1.23;;
75488;SDS011;64069;46.396;48.102;2023-07-31T07:17:26;3.15;;;1.60;;
75488;SDS011;64069;46.396;48.102;2023-07-31T07:19:55;7.65;;;1.73;;
75488;SDS011;64069;46.396;48.102;2023-07-31T07:22:21;3.30;;;1.60;;
75488;SDS011;64069;46.396;48.102;2023-07-31T07:24:51;1.92;;;1.17;;
75488;SDS011;64069;46.396;48.102;2023-07-31T07:27:17;5.47;;;1.80;;
75488;SDS011;64069;46.396;48.102;2023-07-31T07:29:43;6.63;;;2.33;;
75488;SDS011;64069;46.396;48.102;2023-07-31T07:32:09;7.07;;;2.50;;
75488;SDS011;64069;46.396;48.102;2023-07-31T07:34:35;12.13;;;2.50;;
75488;SDS011;64069;46.396;48.102;2023-07-31T07:37:02;2.22;;;1.20;;
75488;SDS011;64069;46.396;48.102;2023-07-31T07:39:28;3.85;;;1.35;;
75488;SDS011;64069;46.396;48.102;2023-07-31T07:42:02;6.07;;;1.67;;
75488;SDS011;64069;46.396;48.102;2023-07-31T07:44:32;3.13;;;1.42;;
75488;SDS011;64069;46.396;48.102;2023-07-31T07:46:58;3.45;;;1.70;;
75488;SDS011;64069;46.396;48.102;2023-07-31T07:49:24;3.83;;;1.55;;
75488;SDS011;64069;46.396;48.102;2023-07-31T07:51:49;20.33;;;3.17;;
75488;SDS011;64069;46.396;48.102;2023-07-31T07:54:15;3.03;;;1.70;;
75488;SDS011;64069;46.396;48.102;2023-07-31T07:56:48;2.50;;;1.55;;
75488;SDS011;64069;46.396;48.102;2023-07-31T07:59:15;2.42;;;1.40;;
75488;SDS011;64069;46.396;48.102;2023-07-31T08:01:41;5.90;;;1.80;;
75488;SDS011;64069;46.396;48.102;2023-07-31T08:04:06;7.05;;;1.70;;
75488;SDS011;64069;46.396;48.102;2023-07-31T08:06:32;5.13;;;2.03;;
75488;SDS011;64069;46.396;48.102;2023-07-31T08:08:58;6.05;;;2.08;;
75488;SDS011;64069;46.396;48.102;2023-07-31T08:11:24;5.32;;;1.80;;
75488;SDS011;64069;46.396;48.102;2023-07-31T08:13:50;4.68;;;1.85;;
75488;SDS011;64069;46.396;48.102;2023-07-31T08:16:16;4.80;;;2.33;;
75488;SDS011;64069;46.396;48.102;2023-07-31T08:18:42;5.18;;;2.50;;
75488;SDS011;64069;46.396;48.102;2023-07-31T08:21:08;10.48;;;2.72;;
75488;SDS011;64069;46.396;48.102;2023-07-31T08:23:34;5.90;;;1.88;;
75488;SDS011;64069;46.396;48.102;2023-07-31T08:26:00;3.08;;;1.80;;
75488;SDS011;64069;46.396;48.102;2023-07-31T08:28:26;3.47;;;1.75;;
75488;SDS011;64069;46.396;48.102;2023-07-31T08:30:52;5.13;;;1.85;;
75488;SDS011;64069;46.396;48.102;2023-07-31T08:33:17;4.43;;;1.70;;
75488;SDS011;64069;46.396;48.102;2023-07-31T08:35:43;4.00;;;1.88;;
75488;SDS011;64069;46.396;48.102;2023-07-31T08:38:09;4.82;;;2.05;;
75488;SDS011;64069;46.396;48.102;2023-07-31T08:40:36;5.57;;;1.85;;
75488;SDS011;64069;46.396;48.102;2023-07-31T08:43:03;6.15;;;2.22;;
75488;SDS011;64069;46.396;48.102;2023-07-31T08:45:30;6.32;;;2.00;;
75488;SDS011;64069;46.396;48.102;2023-07-31T08:47:56;9.38;;;2.13;;
75488;SDS011;64069;46.396;48.102;2023-07-31T08:50:23;8.82;;;3.13;;
75488;SDS011;64069;46.396;48.102;2023-07-31T08:52:49;4.20;;;1.92;;
75488;SDS011;64069;46.396;48.102;2023-07-31T08:55:16;6.53;;;2.10;;
75488;SDS011;64069;46.396;48.102;2023-07-31T08:57:43;3.92;;;1.88;;
75488;SDS011;64069;46.396;48.102;2023-07-31T09:00:10;9.45;;;1.80;;
75488;SDS011;64069;46.396;48.102;2023-07-31T09:05:20;2.85;;;1.60;;
75488;SDS011;64069;46.396;48.102;2023-07-31T09:07:47;3.88;;;2.10;;
75488;SDS011;64069;46.396;48.102;2023-07-31T09:10:15;4.25;;;1.80;;
75488;SDS011;64069;46.396;48.102;2023-07-31T09:12:40;3.97;;;2.28;;
75488;SDS011;64069;46.396;48.102;2023-07-31T09:15:07;4.43;;;1.90;;
75488;SDS011;64069;46.396;48.102;2023-07-31T09:17:36;10.40;;;1.85;;
75488;SDS011;64069;46.396;48.102;2023-07-31T09:20:15;4.68;;;1.73;;
75488;SDS011;64069;46.396;48.102;2023-07-31T09:22:44;3.72;;;1.83;;
75488;SDS011;64069;46.396;48.102;2023-07-31T09:25:20;11.10;;;2.23;;
75488;SDS011;64069;46.396;48.102;2023-07-31T09:27:54;4.15;;;1.67;;
75488;SDS011;64069;46.396;48.102;2023-07-31T09:30:24;15.45;;;2.63;;
75488;SDS011;64069;46.396;48.102;2023-07-31T09:32:51;5.30;;;2.40;;
75488;SDS011;64069;46.396;48.102;2023-07-31T09:35:29;3.35;;;1.92;;
75488;SDS011;64069;46.396;48.102;2023-07-31T09:38:06;6.78;;;2.30;;
75488;SDS011;64069;46.396;48.102;2023-07-31T09:40:44;10.38;;;2.17;;
75488;SDS011;64069;46.396;48.102;2023-07-31T09:43:12;3.95;;;2.03;;
75488;SDS011;64069;46.396;48.102;2023-07-31T09:45:42;4.65;;;1.92;;
75488;SDS011;64069;46.396;48.102;2023-07-31T09:48:10;6.75;;;1.80;;
75488;SDS011;64069;46.396;48.102;2023-07-31T09:50:47;2.80;;;1.50;;
75488;SDS011;64069;46.396;48.102;2023-07-31T09:53:17;2.72;;;1.60;;
75488;SDS011;64069;46.396;48.102;2023-07-31T09:55:43;2.70;;;1.58;;
75488;SDS011;64069;46.396;48.102;2023-07-31T09:58:10;9.30;;;2.30;;
75488;SDS011;64069;46.396;48.102;2023-07-31T10:00:37;4.18;;;2.10;;
75488;SDS011;64069;46.396;48.102;2023-07-31T10:03:09;9.75;;;2.22;;
75488;SDS011;64069;46.396;48.102;2023-07-31T10:08:03;2.42;;;1.30;;
75488;SDS011;64069;46.396;48.102;2023-07-31T10:10:31;9.35;;;2.15;;
75488;SDS011;64069;46.396;48.102;2023-07-31T10:13:00;3.00;;;1.60;;
75488;SDS011;64069;46.396;48.102;2023-07-31T10:15:27;3.05;;;1.80;;
75488;SDS011;64069;46.396;48.102;2023-07-31T10:17:55;6.45;;;1.92;;
75488;SDS011;64069;46.396;48.102;2023-07-31T10:20:23;4.10;;;2.03;;
75488;SDS011;64069;46.396;48.102;2023-07-31T10:22:50;5.07;;;1.80;;
75488;SDS011;64069;46.396;48.102;2023-07-31T10:25:17;6.25;;;1.90;;
75488;SDS011;64069;46.396;48.102;2023-07-31T10:27:45;4.50;;;1.80;;
75488;SDS011;64069;46.396;48.102;2023-07-31T10:30:14;4.80;;;1.73;;
75488;SDS011;64069;46.396;48.102;2023-07-31T10:32:42;21.25;;;2.88;;
75488;SDS011;64069;46.396;48.102;2023-07-31T10:35:10;2.95;;;1.50;;
75488;SDS011;64069;46.396;48.102;2023-07-31T10:37:38;52.67;;;4.25;;
75488;SDS011;64069;46.396;48.102;2023-07-31T10:40:11;4.73;;;1.63;;
75488;SDS011;64069;46.396;48.102;2023-07-31T10:42:50;11.00;;;2.20;;
75488;SDS011;64069;46.396;48.102;2023-07-31T10:45:24;28.17;;;3.35;;
75488;SDS011;64069;46.396;48.102;2023-07-31T10:47:59;8.80;;;1.95;;
75488;SDS011;64069;46.396;48.102;2023-07-31T10:50:32;24.10;;;3.03;;
75488;SDS011;64069;46.396;48.102;2023-07-31T10:53:02;2.75;;;1.50;;
75488;SDS011;64069;46.396;48.102;2023-07-31T10:58:08;2.95;;;1.60;;
75488;SDS011;64069;46.396;48.102;2023-07-31T11:00:42;3.58;;;1.73;;
75488;SDS011;64069;46.396;48.102;2023-07-31T11:03:10;3.80;;;1.50;;
75488;SDS011;64069;46.396;48.102;2023-07-31T11:10:46;2.50;;;1.50;;
75488;SDS011;64069;46.396;48.102;2023-07-31T11:13:13;5.22;;;1.70;;
75488;SDS011;64069;46.396;48.102;2023-07-31T11:15:39;13.27;;;1.98;;
75488;SDS011;64069;46.396;48.102;2023-07-31T11:18:05;4.85;;;1.55;;
75488;SDS011;64069;46.396;48.102;2023-07-31T11:20:33;3.08;;;1.58;;
75488;SDS011;64069;46.396;48.102;2023-07-31T11:23:05;3.17;;;1.52;;
75488;SDS011;64069;46.396;48.102;2023-07-31T11:25:33;3.35;;;1.60;;
75488;SDS011;64069;46.396;48.102;2023-07-31T11:28:03;3.85;;;1.60;;
75488;SDS011;64069;46.396;48.102;2023-07-31T11:30:30;4.10;;;1.63;;
75488;SDS011;64069;46.396;48.102;2023-07-31T11:32:56;2.13;;;1.40;;
75488;SDS011;64069;46.396;48.102;2023-07-31T11:35:26;10.32;;;2.33;;
75488;SDS011;64069;46.396;48.102;2023-07-31T11:37:52;2.67;;;1.60;;
75488;SDS011;64069;46.396;48.102;2023-07-31T11:40:18;3.65;;;1.60;;
75488;SDS011;64069;46.396;48.102;2023-07-31T11:42:45;2.72;;;1.60;;
75488;SDS011;64069;46.396;48.102;2023-07-31T11:45:11;3.42;;;1.83;;
75488;SDS011;64069;46.396;48.102;2023-07-31T11:47:37;4.18;;;1.50;;
75488;SDS011;64069;46.396;48.102;2023-07-31T11:50:10;4.75;;;1.80;;
75488;SDS011;64069;46.396;48.102;2023-07-31T11:52:40;2.75;;;1.63;;
75488;SDS011;64069;46.396;48.102;2023-07-31T11:55:09;4.43;;;1.50;;
75488;SDS011;64069;46.396;48.102;2023-07-31T11:57:35;7.70;;;2.20;;
75488;SDS011;64069;46.396;48.102;2023-07-31T12:00:03;4.57;;;1.83;;
75488;SDS011;64069;46.396;48.102;2023-07-31T12:02:30;44.20;;;4.28;;
75488;SDS011;64069;46.396;48.102;2023-07-31T12:04:57;3.42;;;1.48;;
75488;SDS011;64069;46.396;48.102;2023-07-31T12:07:23;3.88;;;1.90;;
75488;SDS011;64069;46.396;48.102;2023-07-31T12:09:55;1.83;;;1.35;;
75488;SDS011;64069;46.396;48.102;2023-07-31T12:12:25;8.95;;;2.00;;
75488;SDS011;64069;46.396;48.102;2023-07-31T12:14:51;9.00;;;2.20;;
75488;SDS011;64069;46.396;48.102;2023-07-31T12:17:17;5.65;;;1.73;;
75488;SDS011;64069;46.396;48.102;2023-07-31T12:19:45;2.90;;;1.63;;
75488;SDS011;64069;46.396;48.102;2023-07-31T12:22:14;2.22;;;1.52;;
75488;SDS011;64069;46.396;48.102;2023-07-31T12:24:46;5.13;;;2.13;;
75488;SDS011;64069;46.396;48.102;2023-07-31T12:27:12;5.70;;;1.70;;
75488;SDS011;64069;46.396;48.102;2023-07-31T12:29:40;2.25;;;1.58;;
75488;SDS011;64069;46.396;48.102;2023-07-31T12:32:19;4.63;;;1.70;;
75488;SDS011;64069;46.396;48.102;2023-07-31T12:34:46;7.53;;;1.70;;
75488;SDS011;64069;46.396;48.102;2023-07-31T12:37:12;5.00;;;1.83;;
75488;SDS011;64069;46.396;48.102;2023-07-31T12:39:38;10.80;;;1.92;;
75488;SDS011;64069;46.396;48.102;2023-07-31T12:42:05;4.22;;;1.50;;
75488;SDS011;64069;46.396;48.102;2023-07-31T12:44:34;20.50;;;2.72;;
75488;SDS011;64069;46.396;48.102;2023-07-31T12:47:00;3.03;;;1.80;;
75488;SDS011;64069;46.396;48.102;2023-07-31T12:49:26;3.92;;;1.65;;
75488;SDS011;64069;46.396;48.102;2023-07-31T12:51:52;3.15;;;1.70;;
75488;SDS011;64069;46.396;48.102;2023-07-31T12:54:19;2.65;;;1.50;;
75488;SDS011;64069;46.396;48.102;2023-07-31T12:56:45;2.40;;;1.60;;
75488;SDS011;64069;46.396;48.102;2023-07-31T12:59:11;4.55;;;1.70;;
75488;SDS011;64069;46.396;48.102;2023-07-31T13:01:36;2.22;;;1.48;;
75488;SDS011;64069;46.396;48.102;2023-07-31T13:04:03;2.78;;;1.58;;
75488;SDS011;64069;46.396;48.102;2023-07-31T13:06:29;3.05;;;1.58;;
75488;SDS011;64069;46.396;48.102;2023-07-31T13:08:54;2.83;;;1.50;;
75488;SDS011;64069;46.396;48.102;2023-07-31T13:11:20;2.90;;;1.50;;
75488;SDS011;64069;46.396;48.102;2023-07-31T13:13:46;3.25;;;1.83;;
75488;SDS011;64069;46.396;48.102;2023-07-31T13:16:12;4.15;;;1.55;;
75488;SDS011;64069;46.396;48.102;2023-07-31T13:18:39;4.10;;;1.50;;
75488;SDS011;64069;46.396;48.102;2023-07-31T13:21:05;4.97;;;1.75;;
75488;SDS011;64069;46.396;48.102;2023-07-31T13:23:30;16.52;;;2.55;;
75488;SDS011;64069;46.396;48.102;2023-07-31T13:25:56;5.75;;;1.50;;
75488;SDS011;64069;46.396;48.102;2023-07-31T13:28:22;3.70;;;1.50;;
75488;SDS011;64069;46.396;48.102;2023-07-31T13:30:48;2.45;;;1.60;;
75488;SDS011;64069;46.396;48.102;2023-07-31T13:33:14;4.32;;;1.40;;
75488;SDS011;64069;46.396;48.102;2023-07-31T13:35:43;4.03;;;1.60;;
75488;SDS011;64069;46.396;48.102;2023-07-31T13:38:09;6.10;;;1.90;;
75488;SDS011;64069;46.396;48.102;2023-07-31T13:40:35;4.15;;;1.50;;
75488;SDS011;64069;46.396;48.102;2023-07-31T13:43:04;3.97;;;1.80;;
75488;SDS011;64069;46.396;48.102;2023-07-31T13:45:30;2.78;;;1.63;;
75488;SDS011;64069;46.396;48.102;2023-07-31T13:47:56;13.65;;;2.08;;
75488;SDS011;64069;46.396;48.102;2023-07-31T13:50:22;2.50;;;1.60;;
75488;SDS011;64069;46.396;48.102;2023-07-31T13:52:48;7.30;;;1.80;;
75488;SDS011;64069;46.396;48.102;2023-07-31T13:55:14;4.95;;;2.05;;
75488;SDS011;64069;46.396;48.102;2023-07-31T13:57:40;6.28;;;2.10;;
75488;SDS011;64069;46.396;48.102;2023-07-31T14:00:06;8.02;;;2.15;;
75488;SDS011;64069;46.396;48.102;2023-07-31T14:02:33;6.03;;;2.20;;
75488;SDS011;64069;46.396;48.102;2023-07-31T14:04:59;3.75;;;1.85;;
75488;SDS011;64069;46.396;48.102;2023-07-31T14:07:25;7.57;;;2.17;;
75488;SDS011;64069;46.396;48.102;2023-07-31T14:09:51;5.07;;;1.80;;
75488;SDS011;64069;46.396;48.102;2023-07-31T14:12:17;6.43;;;1.70;;
75488;SDS011;64069;46.396;48.102;2023-07-31T14:14:42;2.70;;;1.88;;
75488;SDS011;64069;46.396;48.102;2023-07-31T14:17:09;2.83;;;1.75;;
75488;SDS011;64069;46.396;48.102;2023-07-31T14:19:35;3.60;;;1.70;;
75488;SDS011;64069;46.396;48.102;2023-07-31T14:22:01;2.65;;;1.65;;
75488;SDS011;64069;46.396;48.102;2023-07-31T14:24:27;3.22;;;1.85;;
75488;SDS011;64069;46.396;48.102;2023-07-31T14:26:53;6.93;;;2.28;;
75488;SDS011;64069;46.396;48.102;2023-07-31T14:29:18;6.07;;;3.05;;
75488;SDS011;64069;46.396;48.102;2023-07-31T14:31:47;6.72;;;3.92;;
75488;SDS011;64069;46.396;48.102;2023-07-31T14:34:13;4.13;;;1.80;;
75488;SDS011;64069;46.396;48.102;2023-07-31T14:36:42;7.75;;;2.60;;
75488;SDS011;64069;46.396;48.102;2023-07-31T14:39:09;7.28;;;1.77;;
75488;SDS011;64069;46.396;48.102;2023-07-31T14:41:35;6.57;;;1.58;;
75488;SDS011;64069;46.396;48.102;2023-07-31T14:44:01;5.20;;;1.95;;
75488;SDS011;64069;46.396;48.102;2023-07-31T14:46:27;3.55;;;1.63;;
75488;SDS011;64069;46.396;48.102;2023-07-31T14:48:53;8.32;;;1.88;;
75488;SDS011;64069;46.396;48.102;2023-07-31T14:51:19;8.32;;;1.60;;
75488;SDS011;64069;46.396;48.102;2023-07-31T14:53:45;3.38;;;1.65;;
75488;SDS011;64069;46.396;48.102;2023-07-31T14:56:12;5.32;;;1.52;;
75488;SDS011;64069;46.396;48.102;2023-07-31T14:58:38;4.60;;;1.50;;
75488;SDS011;64069;46.396;48.102;2023-07-31T15:01:04;6.93;;;2.10;;